sensor_id;sensor_type;location;lat;lon;timestamp;temperature;humidity
21244;DHT22;10780;50.942;4.028;2023-07-13T00:02:23;17.20;99.90
21244;DHT22;10780;50.942;4.028;2023-07-13T00:04:49;17.20;99.90
21244;DHT22;10780;50.942;4.028;2023-07-13T00:07:14;17.00;99.90
21244;DHT22;10780;50.942;4.028;2023-07-13T00:09:40;17.00;99.90
21244;DHT22;10780;50.942;4.028;2023-07-13T00:12:31;17.00;99.90
21244;DHT22;10780;50.942;4.028;2023-07-13T00:14:59;17.00;99.90
21244;DHT22;10780;50.942;4.028;2023-07-13T00:17:26;17.10;99.90
21244;DHT22;10780;50.942;4.028;2023-07-13T00:19:52;17.10;99.90
21244;DHT22;10780;50.942;4.028;2023-07-13T00:22:19;17.00;99.90
21244;DHT22;10780;50.942;4.028;2023-07-13T00:24:45;17.00;99.90
21244;DHT22;10780;50.942;4.028;2023-07-13T00:27:11;17.00;99.90
21244;DHT22;10780;50.942;4.028;2023-07-13T00:29:37;16.90;99.90
21244;DHT22;10780;50.942;4.028;2023-07-13T00:32:04;16.90;99.90
21244;DHT22;10780;50.942;4.028;2023-07-13T00:34:30;16.80;99.90
21244;DHT22;10780;50.942;4.028;2023-07-13T00:36:56;16.80;99.90
21244;DHT22;10780;50.942;4.028;2023-07-13T00:39:22;16.70;99.90
21244;DHT22;10780;50.942;4.028;2023-07-13T00:41:48;16.80;99.90
21244;DHT22;10780;50.942;4.028;2023-07-13T00:44:15;16.80;99.90
21244;DHT22;10780;50.942;4.028;2023-07-13T00:46:41;16.90;99.90
21244;DHT22;10780;50.942;4.028;2023-07-13T00:49:10;16.90;99.90
21244;DHT22;10780;50.942;4.028;2023-07-13T00:51:43;16.90;99.90
21244;DHT22;10780;50.942;4.028;2023-07-13T00:54:13;16.80;99.90
21244;DHT22;10780;50.942;4.028;2023-07-13T00:56:41;16.80;99.90
21244;DHT22;10780;50.942;4.028;2023-07-13T00:59:10;16.80;99.90
21244;DHT22;10780;50.942;4.028;2023-07-13T01:01:37;16.80;99.90
21244;DHT22;10780;50.942;4.028;2023-07-13T01:04:03;16.80;99.90
21244;DHT22;10780;50.942;4.028;2023-07-13T01:06:36;16.80;99.90
21244;DHT22;10780;50.942;4.028;2023-07-13T01:09:03;16.80;99.90
21244;DHT22;10780;50.942;4.028;2023-07-13T01:11:28;16.80;99.90
21244;DHT22;10780;50.942;4.028;2023-07-13T01:13:54;16.80;99.90
21244;DHT22;10780;50.942;4.028;2023-07-13T01:16:25;16.80;99.90
21244;DHT22;10780;50.942;4.028;2023-07-13T01:18:51;16.70;99.90
21244;DHT22;10780;50.942;4.028;2023-07-13T01:21:17;16.60;99.90
21244;DHT22;10780;50.942;4.028;2023-07-13T01:23:44;16.60;99.90
21244;DHT22;10780;50.942;4.028;2023-07-13T01:26:10;16.60;99.90
21244;DHT22;10780;50.942;4.028;2023-07-13T01:28:37;16.60;99.90
21244;DHT22;10780;50.942;4.028;2023-07-13T01:31:03;16.50;99.90
21244;DHT22;10780;50.942;4.028;2023-07-13T01:33:29;16.60;99.90
21244;DHT22;10780;50.942;4.028;2023-07-13T01:35:54;16.60;99.90
21244;DHT22;10780;50.942;4.028;2023-07-13T01:38:23;16.70;99.90
21244;DHT22;10780;50.942;4.028;2023-07-13T01:40:51;16.70;99.90
21244;DHT22;10780;50.942;4.028;2023-07-13T01:43:17;16.70;99.90
21244;DHT22;10780;50.942;4.028;2023-07-13T01:45:43;16.70;99.90
21244;DHT22;10780;50.942;4.028;2023-07-13T01:48:10;16.60;99.90
21244;DHT22;10780;50.942;4.028;2023-07-13T01:50:36;16.70;99.90
21244;DHT22;10780;50.942;4.028;2023-07-13T01:53:01;16.70;99.90
21244;DHT22;10780;50.942;4.028;2023-07-13T01:55:28;16.60;99.90
21244;DHT22;10780;50.942;4.028;2023-07-13T01:57:53;16.50;99.90
21244;DHT22;10780;50.942;4.028;2023-07-13T02:00:19;16.50;99.90
21244;DHT22;10780;50.942;4.028;2023-07-13T02:02:45;16.40;99.90
21244;DHT22;10780;50.942;4.028;2023-07-13T02:05:11;16.40;99.90
21244;DHT22;10780;50.942;4.028;2023-07-13T02:07:38;16.40;99.90
21244;DHT22;10780;50.942;4.028;2023-07-13T02:10:05;16.40;99.90
21244;DHT22;10780;50.942;4.028;2023-07-13T02:12:31;16.40;99.90
21244;DHT22;10780;50.942;4.028;2023-07-13T02:14:57;16.50;99.90
21244;DHT22;10780;50.942;4.028;2023-07-13T02:17:22;16.50;99.90
21244;DHT22;10780;50.942;4.028;2023-07-13T02:19:48;16.50;99.90
21244;DHT22;10780;50.942;4.028;2023-07-13T02:22:13;16.60;99.90
21244;DHT22;10780;50.942;4.028;2023-07-13T02:24:39;16.60;99.90
21244;DHT22;10780;50.942;4.028;2023-07-13T02:27:05;16.60;99.90
21244;DHT22;10780;50.942;4.028;2023-07-13T02:29:31;16.60;99.90
21244;DHT22;10780;50.942;4.028;2023-07-13T02:31:57;16.60;99.90
21244;DHT22;10780;50.942;4.028;2023-07-13T02:34:22;16.60;99.90
21244;DHT22;10780;50.942;4.028;2023-07-13T02:36:48;16.60;99.90
21244;DHT22;10780;50.942;4.028;2023-07-13T02:39:14;16.60;99.90
21244;DHT22;10780;50.942;4.028;2023-07-13T02:41:39;16.50;99.90
21244;DHT22;10780;50.942;4.028;2023-07-13T02:44:05;16.40;99.90
21244;DHT22;10780;50.942;4.028;2023-07-13T02:46:32;16.40;99.90
21244;DHT22;10780;50.942;4.028;2023-07-13T02:48:58;16.50;99.90
21244;DHT22;10780;50.942;4.028;2023-07-13T02:51:23;16.50;99.90
21244;DHT22;10780;50.942;4.028;2023-07-13T02:53:49;16.50;99.90
21244;DHT22;10780;50.942;4.028;2023-07-13T02:56:15;16.40;99.90
21244;DHT22;10780;50.942;4.028;2023-07-13T02:58:40;16.30;99.90
21244;DHT22;10780;50.942;4.028;2023-07-13T03:01:08;16.20;99.90
21244;DHT22;10780;50.942;4.028;2023-07-13T03:03:34;16.20;99.90
21244;DHT22;10780;50.942;4.028;2023-07-13T03:06:02;16.20;99.90
21244;DHT22;10780;50.942;4.028;2023-07-13T03:08:29;16.20;99.90
21244;DHT22;10780;50.942;4.028;2023-07-13T03:11:21;16.20;99.90
21244;DHT22;10780;50.942;4.028;2023-07-13T03:13:46;16.20;99.90
21244;DHT22;10780;50.942;4.028;2023-07-13T03:16:12;16.10;99.90
21244;DHT22;10780;50.942;4.028;2023-07-13T03:18:39;16.10;99.90
21244;DHT22;10780;50.942;4.028;2023-07-13T03:21:05;16.10;99.90
21244;DHT22;10780;50.942;4.028;2023-07-13T03:23:30;16.00;99.90
21244;DHT22;10780;50.942;4.028;2023-07-13T03:26:11;16.10;99.90
21244;DHT22;10780;50.942;4.028;2023-07-13T03:28:38;16.10;99.90
21244;DHT22;10780;50.942;4.028;2023-07-13T03:31:14;16.00;99.90
21244;DHT22;10780;50.942;4.028;2023-07-13T03:33:41;16.00;99.90
21244;DHT22;10780;50.942;4.028;2023-07-13T03:36:10;16.10;99.90
21244;DHT22;10780;50.942;4.028;2023-07-13T03:38:35;16.10;99.90
21244;DHT22;10780;50.942;4.028;2023-07-13T03:41:01;16.20;99.90
21244;DHT22;10780;50.942;4.028;2023-07-13T03:43:27;16.30;99.90
21244;DHT22;10780;50.942;4.028;2023-07-13T03:45:53;16.40;99.90
21244;DHT22;10780;50.942;4.028;2023-07-13T03:48:18;16.50;99.90
21244;DHT22;10780;50.942;4.028;2023-07-13T03:50:44;16.50;99.90
21244;DHT22;10780;50.942;4.028;2023-07-13T03:53:09;16.50;99.90
21244;DHT22;10780;50.942;4.028;2023-07-13T03:55:35;16.60;99.90
21244;DHT22;10780;50.942;4.028;2023-07-13T03:58:25;16.60;99.90
21244;DHT22;10780;50.942;4.028;2023-07-13T04:00:52;16.70;99.90
21244;DHT22;10780;50.942;4.028;2023-07-13T04:03:18;16.70;99.90
21244;DHT22;10780;50.942;4.028;2023-07-13T04:05:43;16.80;99.90
21244;DHT22;10780;50.942;4.028;2023-07-13T04:08:09;17.00;99.90
21244;DHT22;10780;50.942;4.028;2023-07-13T04:10:35;17.10;99.90
21244;DHT22;10780;50.942;4.028;2023-07-13T04:13:00;17.20;99.90
21244;DHT22;10780;50.942;4.028;2023-07-13T04:15:29;17.20;99.90
21244;DHT22;10780;50.942;4.028;2023-07-13T04:17:55;17.20;99.90
21244;DHT22;10780;50.942;4.028;2023-07-13T04:20:21;17.20;99.90
21244;DHT22;10780;50.942;4.028;2023-07-13T04:22:47;17.20;99.90
21244;DHT22;10780;50.942;4.028;2023-07-13T04:25:12;17.10;99.90
21244;DHT22;10780;50.942;4.028;2023-07-13T04:27:38;17.20;99.90
21244;DHT22;10780;50.942;4.028;2023-07-13T04:30:05;17.20;99.90
21244;DHT22;10780;50.942;4.028;2023-07-13T04:32:31;17.20;99.90
21244;DHT22;10780;50.942;4.028;2023-07-13T04:34:58;17.10;99.90
21244;DHT22;10780;50.942;4.028;2023-07-13T04:37:25;17.00;99.90
21244;DHT22;10780;50.942;4.028;2023-07-13T04:39:51;16.90;99.90
21244;DHT22;10780;50.942;4.028;2023-07-13T04:42:17;16.90;99.90
21244;DHT22;10780;50.942;4.028;2023-07-13T04:44:50;16.90;99.90
21244;DHT22;10780;50.942;4.028;2023-07-13T04:47:17;17.10;99.90
21244;DHT22;10780;50.942;4.028;2023-07-13T04:49:43;17.30;99.90
21244;DHT22;10780;50.942;4.028;2023-07-13T04:52:09;17.40;99.90
21244;DHT22;10780;50.942;4.028;2023-07-13T04:54:35;17.30;99.90
21244;DHT22;10780;50.942;4.028;2023-07-13T04:57:01;17.30;99.90
21244;DHT22;10780;50.942;4.028;2023-07-13T04:59:26;17.40;99.90
21244;DHT22;10780;50.942;4.028;2023-07-13T05:01:52;17.40;99.90
21244;DHT22;10780;50.942;4.028;2023-07-13T05:04:18;17.40;99.90
21244;DHT22;10780;50.942;4.028;2023-07-13T05:06:44;17.60;99.90
21244;DHT22;10780;50.942;4.028;2023-07-13T05:09:10;17.50;99.90
21244;DHT22;10780;50.942;4.028;2023-07-13T05:11:36;17.70;99.90
21244;DHT22;10780;50.942;4.028;2023-07-13T05:14:01;17.70;99.90
21244;DHT22;10780;50.942;4.028;2023-07-13T05:16:27;17.90;99.90
21244;DHT22;10780;50.942;4.028;2023-07-13T05:18:53;17.90;99.90
21244;DHT22;10780;50.942;4.028;2023-07-13T05:21:19;18.00;99.90
21244;DHT22;10780;50.942;4.028;2023-07-13T05:23:45;18.00;99.90
21244;DHT22;10780;50.942;4.028;2023-07-13T05:26:11;18.00;99.90
21244;DHT22;10780;50.942;4.028;2023-07-13T05:28:37;18.10;99.90
21244;DHT22;10780;50.942;4.028;2023-07-13T05:31:04;18.20;99.90
21244;DHT22;10780;50.942;4.028;2023-07-13T05:33:30;18.10;99.90
21244;DHT22;10780;50.942;4.028;2023-07-13T05:35:56;18.00;99.90
21244;DHT22;10780;50.942;4.028;2023-07-13T05:38:22;17.80;99.90
21244;DHT22;10780;50.942;4.028;2023-07-13T05:40:48;17.90;99.90
21244;DHT22;10780;50.942;4.028;2023-07-13T05:43:14;18.20;99.90
21244;DHT22;10780;50.942;4.028;2023-07-13T05:45:39;18.20;99.90
21244;DHT22;10780;50.942;4.028;2023-07-13T05:48:05;18.40;99.90
21244;DHT22;10780;50.942;4.028;2023-07-13T05:50:31;18.60;99.90
21244;DHT22;10780;50.942;4.028;2023-07-13T05:52:57;18.90;99.90
21244;DHT22;10780;50.942;4.028;2023-07-13T05:55:22;18.90;99.90
21244;DHT22;10780;50.942;4.028;2023-07-13T05:57:48;18.80;99.90
21244;DHT22;10780;50.942;4.028;2023-07-13T06:00:14;18.80;99.90
21244;DHT22;10780;50.942;4.028;2023-07-13T06:02:40;18.90;99.90
21244;DHT22;10780;50.942;4.028;2023-07-13T06:05:06;19.00;99.90
21244;DHT22;10780;50.942;4.028;2023-07-13T06:07:32;19.10;99.90
21244;DHT22;10780;50.942;4.028;2023-07-13T06:09:57;19.10;99.90
21244;DHT22;10780;50.942;4.028;2023-07-13T06:12:25;19.10;99.90
21244;DHT22;10780;50.942;4.028;2023-07-13T06:14:50;19.30;99.90
21244;DHT22;10780;50.942;4.028;2023-07-13T06:17:16;19.60;99.90
21244;DHT22;10780;50.942;4.028;2023-07-13T06:19:44;19.80;99.90
21244;DHT22;10780;50.942;4.028;2023-07-13T06:22:10;19.60;99.90
21244;DHT22;10780;50.942;4.028;2023-07-13T06:24:35;19.80;99.90
21244;DHT22;10780;50.942;4.028;2023-07-13T06:27:01;20.10;99.90
21244;DHT22;10780;50.942;4.028;2023-07-13T06:29:27;20.10;99.90
21244;DHT22;10780;50.942;4.028;2023-07-13T06:31:52;20.00;99.90
21244;DHT22;10780;50.942;4.028;2023-07-13T06:34:18;19.90;99.90
21244;DHT22;10780;50.942;4.028;2023-07-13T06:36:44;19.80;99.90
21244;DHT22;10780;50.942;4.028;2023-07-13T06:39:10;19.80;99.90
21244;DHT22;10780;50.942;4.028;2023-07-13T06:41:35;19.50;99.90
21244;DHT22;10780;50.942;4.028;2023-07-13T06:44:01;19.60;99.90
21244;DHT22;10780;50.942;4.028;2023-07-13T06:46:29;20.00;99.90
21244;DHT22;10780;50.942;4.028;2023-07-13T06:48:56;20.10;99.90
21244;DHT22;10780;50.942;4.028;2023-07-13T06:51:21;19.90;99.90
21244;DHT22;10780;50.942;4.028;2023-07-13T06:53:47;19.90;99.90
21244;DHT22;10780;50.942;4.028;2023-07-13T06:56:13;20.00;99.90
21244;DHT22;10780;50.942;4.028;2023-07-13T06:58:38;20.00;99.90
21244;DHT22;10780;50.942;4.028;2023-07-13T07:01:05;19.90;99.90
21244;DHT22;10780;50.942;4.028;2023-07-13T07:03:30;19.80;99.90
21244;DHT22;10780;50.942;4.028;2023-07-13T07:06:18;19.80;99.90
21244;DHT22;10780;50.942;4.028;2023-07-13T07:08:44;19.90;99.90
21244;DHT22;10780;50.942;4.028;2023-07-13T07:11:13;20.10;99.90
21244;DHT22;10780;50.942;4.028;2023-07-13T07:13:39;20.30;99.90
21244;DHT22;10780;50.942;4.028;2023-07-13T07:16:05;20.70;99.90
21244;DHT22;10780;50.942;4.028;2023-07-13T07:18:31;20.80;99.90
21244;DHT22;10780;50.942;4.028;2023-07-13T07:20:56;21.10;99.90
21244;DHT22;10780;50.942;4.028;2023-07-13T07:23:22;21.30;99.90
21244;DHT22;10780;50.942;4.028;2023-07-13T07:25:48;21.30;99.90
21244;DHT22;10780;50.942;4.028;2023-07-13T07:28:15;21.30;99.90
21244;DHT22;10780;50.942;4.028;2023-07-13T07:30:44;21.60;99.90
21244;DHT22;10780;50.942;4.028;2023-07-13T07:33:10;22.00;99.90
21244;DHT22;10780;50.942;4.028;2023-07-13T07:35:36;22.40;99.90
21244;DHT22;10780;50.942;4.028;2023-07-13T07:38:02;22.70;99.90
21244;DHT22;10780;50.942;4.028;2023-07-13T07:40:27;22.50;99.90
21244;DHT22;10780;50.942;4.028;2023-07-13T07:42:53;22.00;99.90
21244;DHT22;10780;50.942;4.028;2023-07-13T07:45:20;21.80;99.90
21244;DHT22;10780;50.942;4.028;2023-07-13T07:47:45;21.40;99.90
21244;DHT22;10780;50.942;4.028;2023-07-13T07:50:12;21.10;99.90
21244;DHT22;10780;50.942;4.028;2023-07-13T07:52:38;21.00;99.90
21244;DHT22;10780;50.942;4.028;2023-07-13T07:55:05;21.20;99.90
21244;DHT22;10780;50.942;4.028;2023-07-13T07:57:31;21.60;99.90
21244;DHT22;10780;50.942;4.028;2023-07-13T07:59:56;21.80;99.90
21244;DHT22;10780;50.942;4.028;2023-07-13T08:02:22;22.20;99.90
21244;DHT22;10780;50.942;4.028;2023-07-13T08:04:48;22.10;99.90
21244;DHT22;10780;50.942;4.028;2023-07-13T08:07:13;22.20;99.90
21244;DHT22;10780;50.942;4.028;2023-07-13T08:09:39;22.40;99.90
21244;DHT22;10780;50.942;4.028;2023-07-13T08:12:05;22.80;99.90
21244;DHT22;10780;50.942;4.028;2023-07-13T08:14:31;22.70;99.90
21244;DHT22;10780;50.942;4.028;2023-07-13T08:16:56;22.90;99.90
21244;DHT22;10780;50.942;4.028;2023-07-13T08:19:22;22.90;99.90
21244;DHT22;10780;50.942;4.028;2023-07-13T08:21:47;22.50;99.90
21244;DHT22;10780;50.942;4.028;2023-07-13T08:24:14;22.30;99.90
21244;DHT22;10780;50.942;4.028;2023-07-13T08:26:40;22.20;99.90
21244;DHT22;10780;50.942;4.028;2023-07-13T08:29:06;22.50;99.90
21244;DHT22;10780;50.942;4.028;2023-07-13T08:31:31;22.80;99.90
21244;DHT22;10780;50.942;4.028;2023-07-13T08:33:57;22.70;99.90
21244;DHT22;10780;50.942;4.028;2023-07-13T08:36:23;22.80;99.90
21244;DHT22;10780;50.942;4.028;2023-07-13T08:38:48;22.90;99.90
21244;DHT22;10780;50.942;4.028;2023-07-13T08:41:16;22.50;99.90
21244;DHT22;10780;50.942;4.028;2023-07-13T08:43:49;22.50;99.90
21244;DHT22;10780;50.942;4.028;2023-07-13T08:46:30;22.40;99.90
21244;DHT22;10780;50.942;4.028;2023-07-13T08:49:08;22.50;99.90
21244;DHT22;10780;50.942;4.028;2023-07-13T08:51:43;22.90;99.90
21244;DHT22;10780;50.942;4.028;2023-07-13T08:54:27;23.10;99.90
21244;DHT22;10780;50.942;4.028;2023-07-13T08:56:53;22.90;99.90
21244;DHT22;10780;50.942;4.028;2023-07-13T08:59:24;22.90;99.90
21244;DHT22;10780;50.942;4.028;2023-07-13T09:01:54;22.60;99.90
21244;DHT22;10780;50.942;4.028;2023-07-13T09:04:26;22.40;99.90
21244;DHT22;10780;50.942;4.028;2023-07-13T09:07:14;22.10;99.90
21244;DHT22;10780;50.942;4.028;2023-07-13T09:10:14;21.80;99.90
21244;DHT22;10780;50.942;4.028;2023-07-13T09:15:31;21.80;99.90
21244;DHT22;10780;50.942;4.028;2023-07-13T09:20:51;21.80;99.90
21244;DHT22;10780;50.942;4.028;2023-07-13T09:23:20;22.30;99.90
21244;DHT22;10780;50.942;4.028;2023-07-13T09:25:59;22.70;99.90
21244;DHT22;10780;50.942;4.028;2023-07-13T09:28:28;22.50;99.90
21244;DHT22;10780;50.942;4.028;2023-07-13T09:31:03;22.70;99.90
21244;DHT22;10780;50.942;4.028;2023-07-13T09:33:30;23.10;99.90
21244;DHT22;10780;50.942;4.028;2023-07-13T09:35:57;23.20;99.90
21244;DHT22;10780;50.942;4.028;2023-07-13T09:38:26;23.10;99.90
21244;DHT22;10780;50.942;4.028;2023-07-13T09:46:27;24.00;99.90
21244;DHT22;10780;50.942;4.028;2023-07-13T09:48:52;24.30;99.90
21244;DHT22;10780;50.942;4.028;2023-07-13T09:51:18;24.20;99.90
21244;DHT22;10780;50.942;4.028;2023-07-13T09:53:44;24.40;99.90
21244;DHT22;10780;50.942;4.028;2023-07-13T09:56:25;24.40;99.90
21244;DHT22;10780;50.942;4.028;2023-07-13T09:58:51;24.40;99.90
21244;DHT22;10780;50.942;4.028;2023-07-13T10:01:40;24.40;99.90
21244;DHT22;10780;50.942;4.028;2023-07-13T10:04:12;24.20;99.90
21244;DHT22;10780;50.942;4.028;2023-07-13T10:06:39;23.70;99.90
21244;DHT22;10780;50.942;4.028;2023-07-13T10:09:09;23.70;99.90
21244;DHT22;10780;50.942;4.028;2023-07-13T10:11:36;23.90;99.90
21244;DHT22;10780;50.942;4.028;2023-07-13T10:14:18;24.10;99.90
21244;DHT22;10780;50.942;4.028;2023-07-13T10:16:46;24.30;99.90
21244;DHT22;10780;50.942;4.028;2023-07-13T10:19:19;24.20;99.90
21244;DHT22;10780;50.942;4.028;2023-07-13T10:21:54;24.20;99.90
21244;DHT22;10780;50.942;4.028;2023-07-13T10:24:26;23.50;99.90
21244;DHT22;10780;50.942;4.028;2023-07-13T10:29:55;23.00;99.90
21244;DHT22;10780;50.942;4.028;2023-07-13T10:32:24;22.90;99.90
21244;DHT22;10780;50.942;4.028;2023-07-13T10:34:51;23.10;99.90
21244;DHT22;10780;50.942;4.028;2023-07-13T10:37:27;23.30;99.90
21244;DHT22;10780;50.942;4.028;2023-07-13T10:39:54;23.40;99.90
21244;DHT22;10780;50.942;4.028;2023-07-13T10:42:33;23.70;99.90
21244;DHT22;10780;50.942;4.028;2023-07-13T10:45:00;24.20;99.90
21244;DHT22;10780;50.942;4.028;2023-07-13T10:47:27;24.80;99.90
21244;DHT22;10780;50.942;4.028;2023-07-13T10:49:56;24.80;99.90
21244;DHT22;10780;50.942;4.028;2023-07-13T10:53:03;25.00;99.90
21244;DHT22;10780;50.942;4.028;2023-07-13T10:58:29;25.40;99.90
21244;DHT22;10780;50.942;4.028;2023-07-13T11:01:17;25.70;99.90
21244;DHT22;10780;50.942;4.028;2023-07-13T11:03:50;25.60;99.90
21244;DHT22;10780;50.942;4.028;2023-07-13T11:08:55;25.50;99.90
21244;DHT22;10780;50.942;4.028;2023-07-13T11:18:52;25.00;99.90
21244;DHT22;10780;50.942;4.028;2023-07-13T11:21:25;25.20;99.90
21244;DHT22;10780;50.942;4.028;2023-07-13T11:23:54;25.20;99.90
21244;DHT22;10780;50.942;4.028;2023-07-13T11:29:33;24.50;99.90
21244;DHT22;10780;50.942;4.028;2023-07-13T11:32:10;24.10;99.90
21244;DHT22;10780;50.942;4.028;2023-07-13T11:34:47;23.60;99.90
21244;DHT22;10780;50.942;4.028;2023-07-13T11:37:15;22.40;99.90
21244;DHT22;10780;50.942;4.028;2023-07-13T11:39:44;20.90;99.90
21244;DHT22;10780;50.942;4.028;2023-07-13T11:42:16;19.20;99.90
21244;DHT22;10780;50.942;4.028;2023-07-13T11:44:52;18.30;99.90
21244;DHT22;10780;50.942;4.028;2023-07-13T11:47:21;17.80;99.90
21244;DHT22;10780;50.942;4.028;2023-07-13T11:49:55;17.70;99.90
21244;DHT22;10780;50.942;4.028;2023-07-13T11:52:43;17.60;99.90
21244;DHT22;10780;50.942;4.028;2023-07-13T11:55:15;17.60;99.90
21244;DHT22;10780;50.942;4.028;2023-07-13T11:58:00;17.90;99.90
21244;DHT22;10780;50.942;4.028;2023-07-13T12:00:29;18.10;99.90
21244;DHT22;10780;50.942;4.028;2023-07-13T12:02:57;18.30;99.90
21244;DHT22;10780;50.942;4.028;2023-07-13T12:05:25;18.60;99.90
21244;DHT22;10780;50.942;4.028;2023-07-13T12:07:50;19.30;99.90
21244;DHT22;10780;50.942;4.028;2023-07-13T12:13:00;20.60;99.90
21244;DHT22;10780;50.942;4.028;2023-07-13T12:15:45;21.30;99.90
21244;DHT22;10780;50.942;4.028;2023-07-13T12:18:20;21.40;99.90
21244;DHT22;10780;50.942;4.028;2023-07-13T12:20:48;22.10;99.90
21244;DHT22;10780;50.942;4.028;2023-07-13T12:23:30;22.70;99.90
21244;DHT22;10780;50.942;4.028;2023-07-13T12:25:58;22.70;99.90
21244;DHT22;10780;50.942;4.028;2023-07-13T12:31:00;22.80;99.90
21244;DHT22;10780;50.942;4.028;2023-07-13T12:33:30;22.90;99.90
21244;DHT22;10780;50.942;4.028;2023-07-13T12:35:59;23.70;99.90
21244;DHT22;10780;50.942;4.028;2023-07-13T12:38:27;23.90;99.90
21244;DHT22;10780;50.942;4.028;2023-07-13T12:40:53;24.50;99.90
21244;DHT22;10780;50.942;4.028;2023-07-13T12:43:21;24.90;99.90
21244;DHT22;10780;50.942;4.028;2023-07-13T12:46:18;25.60;99.90
21244;DHT22;10780;50.942;4.028;2023-07-13T12:48:43;25.80;99.90
21244;DHT22;10780;50.942;4.028;2023-07-13T12:51:14;26.30;99.90
21244;DHT22;10780;50.942;4.028;2023-07-13T12:53:42;26.80;99.90
21244;DHT22;10780;50.942;4.028;2023-07-13T12:56:19;27.10;99.90
21244;DHT22;10780;50.942;4.028;2023-07-13T12:58:47;26.90;99.90
21244;DHT22;10780;50.942;4.028;2023-07-13T13:01:17;26.80;99.90
21244;DHT22;10780;50.942;4.028;2023-07-13T13:03:52;26.60;99.90
21244;DHT22;10780;50.942;4.028;2023-07-13T13:08:46;25.50;99.90
21244;DHT22;10780;50.942;4.028;2023-07-13T13:11:14;25.40;99.90
21244;DHT22;10780;50.942;4.028;2023-07-13T13:13:41;25.70;99.90
21244;DHT22;10780;50.942;4.028;2023-07-13T13:18:59;26.50;99.90
21244;DHT22;10780;50.942;4.028;2023-07-13T13:21:28;26.70;99.90
21244;DHT22;10780;50.942;4.028;2023-07-13T13:23:53;27.00;99.90
21244;DHT22;10780;50.942;4.028;2023-07-13T13:26:20;26.80;99.90
21244;DHT22;10780;50.942;4.028;2023-07-13T13:28:46;26.90;99.90
21244;DHT22;10780;50.942;4.028;2023-07-13T13:31:13;26.80;99.90
21244;DHT22;10780;50.942;4.028;2023-07-13T13:33:41;26.70;99.90
21244;DHT22;10780;50.942;4.028;2023-07-13T13:36:20;26.50;99.90
21244;DHT22;10780;50.942;4.028;2023-07-13T13:38:49;26.10;99.90
21244;DHT22;10780;50.942;4.028;2023-07-13T13:41:15;25.80;99.90
21244;DHT22;10780;50.942;4.028;2023-07-13T13:43:42;25.40;99.90
21244;DHT22;10780;50.942;4.028;2023-07-13T13:46:17;25.10;99.90
21244;DHT22;10780;50.942;4.028;2023-07-13T13:48:44;24.90;99.90
21244;DHT22;10780;50.942;4.028;2023-07-13T13:51:18;24.80;99.90
21244;DHT22;10780;50.942;4.028;2023-07-13T13:53:45;24.70;99.90
21244;DHT22;10780;50.942;4.028;2023-07-13T13:56:12;24.50;99.90
21244;DHT22;10780;50.942;4.028;2023-07-13T13:58:38;24.60;99.90
21244;DHT22;10780;50.942;4.028;2023-07-13T14:01:04;24.70;99.90
21244;DHT22;10780;50.942;4.028;2023-07-13T14:03:34;24.00;99.90
21244;DHT22;10780;50.942;4.028;2023-07-13T14:05:59;24.30;99.90
21244;DHT22;10780;50.942;4.028;2023-07-13T14:08:26;24.60;99.90
21244;DHT22;10780;50.942;4.028;2023-07-13T14:10:54;25.10;99.90
21244;DHT22;10780;50.942;4.028;2023-07-13T14:13:21;25.90;99.90
21244;DHT22;10780;50.942;4.028;2023-07-13T14:15:48;26.70;99.90
21244;DHT22;10780;50.942;4.028;2023-07-13T14:18:13;27.20;99.90
21244;DHT22;10780;50.942;4.028;2023-07-13T14:20:44;27.10;99.90
21244;DHT22;10780;50.942;4.028;2023-07-13T14:23:12;27.40;99.90
21244;DHT22;10780;50.942;4.028;2023-07-13T14:25:37;28.90;99.90
21244;DHT22;10780;50.942;4.028;2023-07-13T14:28:21;28.90;99.90
21244;DHT22;10780;50.942;4.028;2023-07-13T14:30:48;27.50;99.90
21244;DHT22;10780;50.942;4.028;2023-07-13T14:33:13;26.90;99.90
21244;DHT22;10780;50.942;4.028;2023-07-13T14:35:39;27.10;99.90
21244;DHT22;10780;50.942;4.028;2023-07-13T14:38:09;27.60;99.90
21244;DHT22;10780;50.942;4.028;2023-07-13T14:40:35;27.90;99.90
21244;DHT22;10780;50.942;4.028;2023-07-13T14:43:01;27.80;99.90
21244;DHT22;10780;50.942;4.028;2023-07-13T14:45:28;28.30;99.90
21244;DHT22;10780;50.942;4.028;2023-07-13T14:47:55;28.70;99.90
21244;DHT22;10780;50.942;4.028;2023-07-13T14:50:31;27.70;99.90
21244;DHT22;10780;50.942;4.028;2023-07-13T14:52:57;27.20;99.90
21244;DHT22;10780;50.942;4.028;2023-07-13T14:55:23;27.00;99.90
21244;DHT22;10780;50.942;4.028;2023-07-13T14:57:51;27.60;99.90
21244;DHT22;10780;50.942;4.028;2023-07-13T15:00:21;27.20;99.90
21244;DHT22;10780;50.942;4.028;2023-07-13T15:02:51;27.50;99.90
21244;DHT22;10780;50.942;4.028;2023-07-13T15:05:24;27.30;99.90
21244;DHT22;10780;50.942;4.028;2023-07-13T15:07:52;27.80;99.90
21244;DHT22;10780;50.942;4.028;2023-07-13T15:10:27;28.90;99.90
21244;DHT22;10780;50.942;4.028;2023-07-13T15:12:57;29.80;99.90
21244;DHT22;10780;50.942;4.028;2023-07-13T15:15:23;29.00;99.90
21244;DHT22;10780;50.942;4.028;2023-07-13T15:17:49;28.80;99.90
21244;DHT22;10780;50.942;4.028;2023-07-13T15:20:33;29.10;99.90
21244;DHT22;10780;50.942;4.028;2023-07-13T15:23:01;29.70;99.90
21244;DHT22;10780;50.942;4.028;2023-07-13T15:25:29;30.50;99.90
21244;DHT22;10780;50.942;4.028;2023-07-13T15:27:56;29.80;99.90
21244;DHT22;10780;50.942;4.028;2023-07-13T15:30:24;29.00;99.90
21244;DHT22;10780;50.942;4.028;2023-07-13T15:32:50;28.70;99.90
21244;DHT22;10780;50.942;4.028;2023-07-13T15:35:21;29.00;99.90
21244;DHT22;10780;50.942;4.028;2023-07-13T15:37:48;28.80;99.90
21244;DHT22;10780;50.942;4.028;2023-07-13T15:40:14;27.70;99.90
21244;DHT22;10780;50.942;4.028;2023-07-13T15:42:44;28.40;99.90
21244;DHT22;10780;50.942;4.028;2023-07-13T15:45:21;28.20;99.90
21244;DHT22;10780;50.942;4.028;2023-07-13T15:47:49;28.50;99.90
21244;DHT22;10780;50.942;4.028;2023-07-13T15:50:20;27.90;99.90
21244;DHT22;10780;50.942;4.028;2023-07-13T15:52:49;28.00;99.90
21244;DHT22;10780;50.942;4.028;2023-07-13T15:55:15;28.50;99.90
21244;DHT22;10780;50.942;4.028;2023-07-13T15:57:50;28.10;99.90
21244;DHT22;10780;50.942;4.028;2023-07-13T16:00:18;27.00;99.90
21244;DHT22;10780;50.942;4.028;2023-07-13T16:02:46;26.50;99.90
21244;DHT22;10780;50.942;4.028;2023-07-13T16:05:12;26.10;99.90
21244;DHT22;10780;50.942;4.028;2023-07-13T16:07:37;26.80;99.90
21244;DHT22;10780;50.942;4.028;2023-07-13T16:10:03;26.80;99.90
21244;DHT22;10780;50.942;4.028;2023-07-13T16:12:29;27.60;99.90
21244;DHT22;10780;50.942;4.028;2023-07-13T16:14:55;29.10;99.90
21244;DHT22;10780;50.942;4.028;2023-07-13T16:17:20;29.60;99.90
21244;DHT22;10780;50.942;4.028;2023-07-13T16:19:46;30.80;99.90